createdAt,value
2019-03-31T00:02:07.488Z,84.66
2019-03-31T00:04:39.718Z,84.48
2019-03-31T00:07:12.087Z,84.81
2019-03-31T00:09:44.472Z,84.95
2019-03-31T00:12:16.811Z,84.35
2019-03-31T00:14:48.995Z,84.64
2019-03-31T00:17:22.515Z,84.73
2019-03-31T00:19:55.270Z,84.70
2019-03-31T00:22:27.669Z,84.64
2019-03-31T00:25:01.206Z,84.71
2019-03-31T00:27:33.592Z,84.91
2019-03-31T00:30:06.366Z,84.76
2019-03-31T00:32:39.500Z,84.92
2019-03-31T00:35:12.940Z,84.52
2019-03-31T00:37:45.203Z,85.59
2019-03-31T00:40:17.627Z,85.85
2019-03-31T00:42:49.941Z,85.85
2019-03-31T00:45:22.178Z,86.13
2019-03-31T00:47:54.725Z,85.77
2019-03-31T00:50:28.181Z,85.96
2019-03-31T00:53:00.544Z,85.71
2019-03-31T00:55:32.739Z,85.70
2019-03-31T00:58:05.014Z,85.80
2019-03-31T01:00:54.950Z,86.18
2019-03-31T01:03:28.958Z,86.08
2019-03-31T01:06:02.533Z,87.93
2019-03-31T01:08:37.745Z,87.46
2019-03-31T01:11:17.582Z,87.30
2019-03-31T01:13:50.057Z,88.32
2019-03-31T01:16:24.309Z,88.86
2019-03-31T01:18:56.576Z,88.45
2019-03-31T01:21:29.010Z,89.22
2019-03-31T01:24:01.302Z,89.47
2019-03-31T01:26:35.465Z,89.50
2019-03-31T01:29:08.063Z,89.58
2019-03-31T01:31:50.290Z,90.10
2019-03-31T01:34:17.134Z,90.08
2019-03-31T01:36:52.630Z,90.14
2019-03-31T01:39:27.481Z,89.25
2019-03-31T01:42:01.992Z,89.12
2019-03-31T01:44:36.878Z,89.30
2019-03-31T01:47:10.134Z,88.48
2019-03-31T01:49:43.538Z,88.27
2019-03-31T01:52:15.846Z,89.01
2019-03-31T01:54:48.027Z,89.28
2019-03-31T01:57:20.317Z,90.08
2019-03-31T01:59:52.432Z,90.99
2019-03-31T02:02:30.330Z,90.78
2019-03-31T02:05:02.790Z,89.95
2019-03-31T02:07:36.004Z,89.47
2019-03-31T02:10:10.644Z,89.85
2019-03-31T02:12:42.959Z,90.77
2019-03-31T02:15:15.789Z,91.98
2019-03-31T02:17:48.026Z,91.83
2019-03-31T02:20:20.789Z,92.57
2019-03-31T02:22:53.151Z,93.11
2019-03-31T02:25:26.487Z,93.03
2019-03-31T02:27:59.335Z,93.68
2019-03-31T02:30:31.590Z,94.12
2019-03-31T02:33:03.887Z,94.71
2019-03-31T02:35:36.176Z,94.30
2019-03-31T02:38:08.550Z,93.76
2019-03-31T02:40:40.922Z,94.49
2019-03-31T02:43:13.221Z,97.28
2019-03-31T02:45:45.495Z,97.09
2019-03-31T02:48:17.798Z,96.95
2019-03-31T02:50:51.757Z,96.52
2019-03-31T02:53:25.671Z,96.76
2019-03-31T02:56:00.025Z,96.99
2019-03-31T02:58:33.193Z,97.50
2019-03-31T03:01:05.648Z,97.87
2019-03-31T03:03:40.516Z,98.68
2019-03-31T03:06:16.164Z,99.66
2019-03-31T03:08:50.772Z,99.45
2019-03-31T03:11:24.960Z,99.14
2019-03-31T03:14:00.432Z,99.12
2019-03-31T03:16:33.376Z,100.00
2019-03-31T03:19:06.208Z,100.00
2019-03-31T03:21:38.590Z,100.00
2019-03-31T03:24:10.950Z,100.00
2019-03-31T03:26:43.876Z,100.00
2019-03-31T03:29:16.196Z,100.00
2019-03-31T03:31:50.461Z,100.00
2019-03-31T03:34:25.664Z,100.00
2019-03-31T03:36:59.418Z,100.00
2019-03-31T03:39:33.010Z,100.00
2019-03-31T03:42:07.022Z,100.00
2019-03-31T03:44:39.932Z,100.00
2019-03-31T03:47:12.184Z,100.00
2019-03-31T03:49:44.450Z,100.00
2019-03-31T03:52:18.525Z,100.00
2019-03-31T03:54:53.105Z,100.00
2019-03-31T03:57:25.564Z,100.00
2019-03-31T03:59:57.871Z,100.00
2019-03-31T04:02:30.140Z,100.00
2019-03-31T04:05:02.413Z,100.00
2019-03-31T04:07:34.797Z,100.00
2019-03-31T04:10:11.396Z,100.00
2019-03-31T04:12:44.118Z,100.00
2019-03-31T04:15:16.454Z,100.00
2019-03-31T04:17:48.782Z,100.00
2019-03-31T04:20:20.939Z,100.00
2019-03-31T04:22:53.241Z,100.00
2019-03-31T04:25:25.552Z,100.00
2019-03-31T04:27:57.807Z,100.00
2019-03-31T04:30:29.942Z,100.00
2019-03-31T04:33:03.311Z,100.00
2019-03-31T04:35:35.739Z,100.00
2019-03-31T04:38:08.139Z,100.00
2019-03-31T04:40:40.384Z,100.00
2019-03-31T04:43:12.650Z,100.00
2019-03-31T04:45:46.142Z,100.00
2019-03-31T04:48:18.507Z,100.00
2019-03-31T04:50:52.271Z,100.00
2019-03-31T04:53:24.624Z,100.00
2019-03-31T04:55:56.964Z,100.00
2019-03-31T04:58:29.328Z,100.00
2019-03-31T05:01:02.313Z,100.00
2019-03-31T05:03:34.773Z,100.00
2019-03-31T05:06:07.098Z,100.00
2019-03-31T05:08:39.307Z,100.00
2019-03-31T05:11:11.981Z,100.00
2019-03-31T05:13:44.430Z,100.00
2019-03-31T05:16:16.752Z,100.00
2019-03-31T05:18:49.945Z,100.00
2019-03-31T05:21:22.286Z,100.00
2019-03-31T05:23:54.666Z,99.99
2019-03-31T05:26:27.190Z,100.00
2019-03-31T05:28:59.562Z,100.00
2019-03-31T05:31:31.760Z,100.00
2019-03-31T05:34:18.131Z,100.00
2019-03-31T05:36:38.093Z,99.21
2019-03-31T05:39:12.711Z,97.01
2019-03-31T05:41:49.120Z,97.12
2019-03-31T05:44:23.484Z,97.04
2019-03-31T05:46:55.772Z,97.98
2019-03-31T05:49:28.113Z,96.18
2019-03-31T05:52:05.067Z,93.79
2019-03-31T05:54:39.574Z,92.58
2019-03-31T05:57:12.398Z,90.21
2019-03-31T05:59:45.255Z,88.78
2019-03-31T06:02:17.462Z,87.78
2019-03-31T06:04:49.690Z,86.32
2019-03-31T06:07:21.942Z,84.12
2019-03-31T06:09:54.315Z,84.69
2019-03-31T06:12:30.321Z,82.47
2019-03-31T06:15:03.035Z,82.38
2019-03-31T06:17:38.913Z,80.64
2019-03-31T06:20:14.797Z,80.88
2019-03-31T06:22:50.410Z,79.33
2019-03-31T06:25:22.695Z,78.79
2019-03-31T06:27:54.980Z,77.92
2019-03-31T06:30:27.428Z,78.27
2019-03-31T06:32:59.592Z,77.48
2019-03-31T06:35:31.856Z,75.22
2019-03-31T06:38:05.536Z,75.49
2019-03-31T06:40:40.057Z,76.78
2019-03-31T06:43:12.455Z,76.31
2019-03-31T06:45:45.014Z,76.68
2019-03-31T06:48:17.407Z,74.88
2019-03-31T06:50:53.595Z,74.77
2019-03-31T06:53:27.354Z,74.06
2019-03-31T06:56:01.227Z,75.47
2019-03-31T06:58:37.527Z,74.83
2019-03-31T07:01:11.074Z,74.83
2019-03-31T07:03:43.800Z,75.11
2019-03-31T07:06:18.485Z,75.11
2019-03-31T07:08:51.952Z,73.88
2019-03-31T07:11:24.198Z,73.94
2019-03-31T07:13:56.632Z,71.61
2019-03-31T07:16:29.058Z,71.89
2019-03-31T07:19:01.476Z,70.07
2019-03-31T07:21:34.662Z,73.12
2019-03-31T07:24:07.007Z,72.54
2019-03-31T07:26:39.270Z,70.31
2019-03-31T07:29:12.670Z,70.79
2019-03-31T07:31:45.035Z,70.34
2019-03-31T07:34:19.037Z,68.68
2019-03-31T07:36:54.183Z,68.35
2019-03-31T07:39:27.280Z,68.35
2019-03-31T07:42:01.248Z,68.70
2019-03-31T07:44:33.902Z,67.19
2019-03-31T07:47:09.136Z,66.11
2019-03-31T07:49:42.850Z,66.54
2019-03-31T07:52:19.116Z,66.54
2019-03-31T07:54:53.390Z,64.32
2019-03-31T07:57:25.882Z,62.91
2019-03-31T07:59:58.194Z,67.83
2019-03-31T08:02:33.383Z,65.31
2019-03-31T08:05:07.831Z,61.98
2019-03-31T08:07:41.580Z,62.24
2019-03-31T08:10:14.284Z,62.96
2019-03-31T08:12:46.695Z,61.97
2019-03-31T08:15:19.244Z,62.95
2019-03-31T08:17:52.699Z,63.06
2019-03-31T08:20:25.176Z,62.35
2019-03-31T08:22:57.516Z,62.36
2019-03-31T08:25:29.949Z,63.23
2019-03-31T08:28:02.213Z,62.82
2019-03-31T08:30:34.490Z,63.06
2019-03-31T08:33:06.886Z,62.13
2019-03-31T08:35:47.170Z,60.27
2019-03-31T08:38:14.650Z,61.67
2019-03-31T08:40:46.892Z,58.23
2019-03-31T08:43:20.639Z,57.44
2019-03-31T08:45:54.518Z,54.64
2019-03-31T08:48:27.331Z,58.46
2019-03-31T08:51:01.309Z,57.09
2019-03-31T08:53:33.750Z,59.50
2019-03-31T08:56:12.150Z,57.82
2019-03-31T08:58:44.542Z,57.85
2019-03-31T09:01:18.033Z,57.61
2019-03-31T09:03:51.539Z,57.06
2019-03-31T09:06:27.199Z,57.70
2019-03-31T09:08:59.535Z,58.92
2019-03-31T09:11:35.544Z,55.77
2019-03-31T09:14:09.527Z,56.47
2019-03-31T09:16:41.800Z,55.99
2019-03-31T09:19:17.318Z,53.72
2019-03-31T09:21:51.776Z,56.68
2019-03-31T09:24:25.690Z,54.96
2019-03-31T09:27:00.790Z,53.04
2019-03-31T09:29:33.006Z,53.09
2019-03-31T09:32:05.807Z,53.59
2019-03-31T09:34:40.208Z,52.25
2019-03-31T09:37:13.092Z,51.73
2019-03-31T09:39:46.856Z,52.68
2019-03-31T09:42:20.177Z,52.66
2019-03-31T09:44:53.781Z,51.04
2019-03-31T09:47:27.193Z,51.56
2019-03-31T09:49:59.550Z,54.44
2019-03-31T09:52:33.208Z,51.53
2019-03-31T09:55:06.644Z,53.16
2019-03-31T09:57:41.814Z,50.74
2019-03-31T10:00:14.903Z,50.71
2019-03-31T10:02:47.633Z,49.87
2019-03-31T10:05:21.777Z,49.12
2019-03-31T10:07:55.362Z,51.87
2019-03-31T10:10:40.708Z,51.80
2019-03-31T10:13:14.624Z,52.94
2019-03-31T10:15:46.945Z,49.04
2019-03-31T10:18:19.303Z,48.93
2019-03-31T10:20:51.916Z,46.94
2019-03-31T10:23:25.468Z,48.46
2019-03-31T10:25:59.387Z,46.98
2019-03-31T10:28:32.820Z,47.61
2019-03-31T10:31:05.696Z,45.52
2019-03-31T10:33:39.474Z,45.29
2019-03-31T10:36:15.252Z,47.56
2019-03-31T10:38:47.895Z,45.68
2019-03-31T10:41:21.467Z,44.39
2019-03-31T10:43:53.924Z,45.49
2019-03-31T10:46:30.187Z,44.81
2019-03-31T10:49:02.280Z,45.49
2019-03-31T10:51:34.908Z,47.02
2019-03-31T10:54:09.872Z,46.50
2019-03-31T10:56:42.357Z,44.93
2019-03-31T10:59:14.742Z,45.15
2019-03-31T11:01:47.168Z,44.88
2019-03-31T11:04:19.579Z,43.72
2019-03-31T11:06:58.964Z,44.58
2019-03-31T11:09:25.809Z,44.46
2019-03-31T11:11:58.163Z,45.57
2019-03-31T11:14:30.459Z,46.91
2019-03-31T11:17:02.719Z,47.33
2019-03-31T11:19:34.952Z,44.65
2019-03-31T11:22:17.117Z,46.31
2019-03-31T11:24:49.322Z,46.81
2019-03-31T11:27:21.609Z,44.80
2019-03-31T11:29:53.807Z,44.71
2019-03-31T11:32:26.148Z,44.92
2019-03-31T11:34:59.670Z,45.90
2019-03-31T11:37:32.123Z,45.55
2019-03-31T11:40:04.586Z,43.38
2019-03-31T11:42:37.034Z,44.79
2019-03-31T11:45:09.623Z,43.97
2019-03-31T11:47:41.922Z,45.21
2019-03-31T11:50:14.841Z,44.74
2019-03-31T11:54:00.705Z,44.07
2019-03-31T11:56:34.663Z,43.49
2019-03-31T11:59:07.014Z,43.39
2019-03-31T12:01:39.328Z,43.53
2019-03-31T12:04:12.300Z,45.06
2019-03-31T12:06:46.214Z,44.45
2019-03-31T12:09:18.581Z,45.15
2019-03-31T12:11:52.076Z,46.65
2019-03-31T12:14:26.082Z,47.44
2019-03-31T12:17:01.061Z,46.27
2019-03-31T12:19:35.198Z,46.16
2019-03-31T12:22:07.477Z,49.64
2019-03-31T12:24:41.382Z,48.80
2019-03-31T12:27:14.444Z,48.79
2019-03-31T12:29:48.401Z,50.55
2019-03-31T12:32:20.586Z,51.39
2019-03-31T12:34:52.785Z,50.89
2019-03-31T12:37:24.911Z,50.93
2019-03-31T12:39:57.954Z,51.67
2019-03-31T12:42:30.168Z,52.43
2019-03-31T12:45:04.730Z,50.12
2019-03-31T12:47:39.578Z,49.33
2019-03-31T12:50:15.499Z,50.22
2019-03-31T12:52:51.040Z,50.64
2019-03-31T12:55:24.040Z,49.80
2019-03-31T12:57:56.140Z,51.19
2019-03-31T13:00:28.506Z,51.61
2019-03-31T13:03:01.176Z,49.12
2019-03-31T13:05:36.492Z,49.84
2019-03-31T13:08:13.340Z,50.06
2019-03-31T13:10:45.642Z,49.56
2019-03-31T13:13:18.078Z,50.42
2019-03-31T13:15:50.409Z,50.94
2019-03-31T13:18:22.874Z,51.38
2019-03-31T13:20:55.185Z,50.03
2019-03-31T13:23:27.511Z,52.68
2019-03-31T13:26:00.069Z,51.38
2019-03-31T13:28:32.320Z,53.03
2019-03-31T13:31:04.604Z,53.35
2019-03-31T13:33:37.040Z,54.07
2019-03-31T13:36:09.367Z,54.08
2019-03-31T13:38:41.711Z,55.01
2019-03-31T13:41:14.054Z,55.38
2019-03-31T13:43:46.367Z,55.61
2019-03-31T13:46:20.508Z,55.71
2019-03-31T13:48:52.778Z,57.49
2019-03-31T13:51:25.056Z,60.39
2019-03-31T13:54:01.031Z,60.39
2019-03-31T13:56:33.790Z,59.93
2019-03-31T13:59:09.234Z,60.67
2019-03-31T14:01:44.354Z,60.43
2019-03-31T14:04:16.673Z,61.94
2019-03-31T14:06:49.502Z,62.25
2019-03-31T14:09:21.598Z,63.10
2019-03-31T14:11:53.820Z,63.10
2019-03-31T14:14:26.756Z,63.97
2019-03-31T14:17:01.076Z,64.06
2019-03-31T14:19:34.793Z,64.64
2019-03-31T14:22:07.058Z,65.31
2019-03-31T14:24:39.503Z,66.69
2019-03-31T14:27:11.846Z,67.01
2019-03-31T14:29:44.439Z,68.45
2019-03-31T14:32:18.186Z,68.45
2019-03-31T14:34:50.806Z,68.83
2019-03-31T14:37:27.954Z,70.30
2019-03-31T14:40:00.978Z,70.35
2019-03-31T14:42:33.858Z,70.54
2019-03-31T14:45:06.528Z,70.45
2019-03-31T14:47:38.808Z,71.04
2019-03-31T14:50:16.027Z,70.81
2019-03-31T14:52:49.769Z,71.62
2019-03-31T14:55:22.907Z,72.16
2019-03-31T14:57:55.808Z,72.13
2019-03-31T15:00:29.073Z,72.35
2019-03-31T15:03:01.683Z,72.56
2019-03-31T15:05:34.063Z,72.14
2019-03-31T15:08:06.495Z,71.35
2019-03-31T15:10:40.435Z,71.87
2019-03-31T15:13:12.691Z,72.42
2019-03-31T15:15:45.022Z,72.82
2019-03-31T15:18:17.140Z,72.52
2019-03-31T15:20:49.395Z,72.89
2019-03-31T15:23:29.364Z,72.65
2019-03-31T15:26:04.344Z,72.20
2019-03-31T15:28:37.893Z,72.92
2019-03-31T15:31:11.633Z,72.89
2019-03-31T15:33:43.820Z,73.03
2019-03-31T15:36:16.228Z,73.48
2019-03-31T15:38:49.177Z,72.86
2019-03-31T15:41:22.086Z,73.74
2019-03-31T15:43:54.499Z,74.45
2019-03-31T15:46:29.875Z,74.49
2019-03-31T15:49:02.905Z,75.04
2019-03-31T15:51:35.316Z,75.64
2019-03-31T15:54:08.372Z,75.52
2019-03-31T15:56:42.639Z,76.69
2019-03-31T15:59:15.442Z,77.04
2019-03-31T16:01:48.457Z,77.18
2019-03-31T16:04:20.832Z,77.49
2019-03-31T16:06:53.144Z,77.80
2019-03-31T16:09:27.830Z,77.72
2019-03-31T16:12:02.220Z,78.02
2019-03-31T16:14:34.006Z,78.06
2019-03-31T16:17:06.492Z,78.66
2019-03-31T16:19:38.299Z,79.15
2019-03-31T16:22:11.128Z,79.44
2019-03-31T16:24:48.313Z,79.53
2019-03-31T16:27:20.069Z,80.33
2019-03-31T16:29:52.997Z,81.65
2019-03-31T16:32:25.328Z,82.17
2019-03-31T16:34:59.399Z,81.32
2019-03-31T16:37:32.335Z,81.92
2019-03-31T16:40:05.800Z,81.06
2019-03-31T16:42:38.092Z,81.77
2019-03-31T16:45:11.289Z,81.67
2019-03-31T16:47:43.624Z,80.77
2019-03-31T16:50:17.200Z,81.31
2019-03-31T16:52:52.616Z,81.81
2019-03-31T16:55:24.720Z,81.81
2019-03-31T16:57:56.714Z,82.49
2019-03-31T17:00:28.509Z,83.43
2019-03-31T17:03:00.387Z,82.95
2019-03-31T17:05:32.212Z,83.00
2019-03-31T17:08:04.011Z,82.88
2019-03-31T17:10:35.813Z,83.28
2019-03-31T17:13:07.757Z,84.01
2019-03-31T17:15:41.451Z,85.02
2019-03-31T17:18:13.297Z,86.69
2019-03-31T17:20:45.208Z,87.83
2019-03-31T17:23:17.037Z,89.19
2019-03-31T17:25:48.798Z,89.73
2019-03-31T17:28:20.319Z,90.43
2019-03-31T17:30:52.003Z,90.85
2019-03-31T17:33:24.737Z,90.28
2019-03-31T17:35:56.390Z,91.59
2019-03-31T17:38:28.233Z,92.54
2019-03-31T17:41:03.044Z,91.91
2019-03-31T17:43:35.846Z,92.16
2019-03-31T17:46:07.642Z,91.51
2019-03-31T17:48:39.353Z,90.08
2019-03-31T17:51:11.070Z,89.47
2019-03-31T17:53:42.794Z,89.40
2019-03-31T17:56:14.719Z,89.44
2019-03-31T17:58:46.562Z,89.82
2019-03-31T18:01:18.333Z,89.16
2019-03-31T18:03:50.189Z,88.07
2019-03-31T18:06:22.514Z,87.56
2019-03-31T18:08:54.711Z,87.13
2019-03-31T18:11:27.023Z,86.95
2019-03-31T18:14:00.237Z,86.76
2019-03-31T18:16:31.951Z,86.39
2019-03-31T18:19:03.729Z,85.56
2019-03-31T18:21:35.394Z,86.06
2019-03-31T18:24:07.732Z,86.08
2019-03-31T18:26:39.356Z,85.36
2019-03-31T18:29:11.799Z,84.29
2019-03-31T18:31:44.102Z,83.57
2019-03-31T18:34:16.413Z,83.54
2019-03-31T18:36:48.103Z,83.51
2019-03-31T18:39:21.653Z,83.64
2019-03-31T18:41:53.413Z,83.35
2019-03-31T18:44:25.091Z,83.40
2019-03-31T18:46:57.438Z,84.24
2019-03-31T18:49:29.177Z,83.65
2019-03-31T18:52:00.845Z,83.33
2019-03-31T18:55:09.614Z,82.97
2019-03-31T18:57:55.107Z,82.58
2019-03-31T19:00:57.613Z,82.37
2019-03-31T19:03:41.326Z,82.25
2019-03-31T19:06:41.499Z,81.92
2019-03-31T19:09:43.769Z,81.26
2019-03-31T19:12:50.442Z,81.69
2019-03-31T19:15:47.622Z,81.85
2019-03-31T19:18:50.423Z,82.40
2019-03-31T19:21:44.107Z,82.28
2019-03-31T19:24:27.238Z,82.68
2019-03-31T19:27:08.553Z,82.15
2019-03-31T19:30:07.955Z,81.83
2019-03-31T19:33:05.715Z,81.99
2019-03-31T19:35:49.426Z,82.14
2019-03-31T19:38:42.892Z,81.84
2019-03-31T19:41:24.804Z,82.52
2019-03-31T19:44:15.377Z,82.57
2019-03-31T19:47:06.332Z,82.94
2019-03-31T19:49:51.553Z,82.02
2019-03-31T19:52:30.487Z,81.57
2019-03-31T19:55:14.396Z,81.74
2019-03-31T19:58:05.520Z,81.52
2019-03-31T20:00:43.322Z,80.85
2019-03-31T20:03:37.248Z,80.59
2019-03-31T20:06:31.894Z,80.49
2019-03-31T20:09:25.610Z,79.45
2019-03-31T20:12:18.930Z,78.34
2019-03-31T20:15:27.556Z,76.51
2019-03-31T20:18:13.879Z,73.26
2019-03-31T20:21:13.439Z,72.46
2019-03-31T20:24:03.779Z,72.19
2019-03-31T20:26:53.340Z,72.15
2019-03-31T20:29:47.668Z,71.96
2019-03-31T20:32:44.457Z,70.14
2019-03-31T20:35:34.588Z,70.83
2019-03-31T20:38:25.300Z,70.12
2019-03-31T20:41:06.492Z,67.08
2019-03-31T20:43:46.527Z,66.00
2019-03-31T20:46:19.334Z,66.54
2019-03-31T20:48:52.086Z,65.71
2019-03-31T20:51:24.094Z,63.71
2019-03-31T20:53:57.017Z,61.17
2019-03-31T20:56:30.013Z,63.41
2019-03-31T20:59:01.873Z,63.24
2019-03-31T21:01:33.792Z,64.13
2019-03-31T21:04:05.971Z,68.67
2019-03-31T21:06:37.770Z,72.10
2019-03-31T21:09:12.957Z,76.61
2019-03-31T21:11:44.953Z,78.88
2019-03-31T21:14:18.387Z,80.04
2019-03-31T21:16:51.059Z,81.85
2019-03-31T21:19:23.347Z,82.71
2019-03-31T21:21:57.046Z,83.09
2019-03-31T21:24:28.925Z,82.54
2019-03-31T21:27:00.632Z,81.36
2019-03-31T21:29:33.091Z,80.49
2019-03-31T21:32:05.943Z,77.61
2019-03-31T21:34:37.688Z,74.60
2019-03-31T21:37:09.494Z,71.69
2019-03-31T21:39:41.235Z,70.10
2019-03-31T21:42:13.059Z,71.34
2019-03-31T21:47:15.296Z,69.84
2019-03-31T21:49:46.891Z,69.89
2019-03-31T21:52:18.590Z,69.37
2019-03-31T21:54:50.752Z,69.16
2019-03-31T21:57:22.506Z,68.45
2019-03-31T21:59:54.245Z,67.46
2019-03-31T22:02:27.128Z,67.62
2019-03-31T22:04:59.041Z,67.62
2019-03-31T22:07:30.752Z,67.71
2019-03-31T22:10:03.189Z,68.66
2019-03-31T22:12:36.451Z,68.63
2019-03-31T22:15:10.792Z,67.67
2019-03-31T22:17:42.459Z,70.13
2019-03-31T22:20:15.036Z,73.04
2019-03-31T22:22:47.439Z,75.55
2019-03-31T22:25:19.008Z,78.49
2019-03-31T22:27:52.090Z,78.76
2019-03-31T22:30:23.853Z,80.20
2019-03-31T22:32:55.571Z,81.48
2019-03-31T22:35:27.597Z,81.38
2019-03-31T22:38:02.678Z,81.34
2019-03-31T22:40:35.310Z,81.68
2019-03-31T22:43:07.896Z,82.46
2019-03-31T22:45:39.932Z,82.61
2019-03-31T22:48:12.220Z,82.92
2019-03-31T22:50:43.890Z,82.75
2019-03-31T22:53:15.588Z,83.73
2019-03-31T22:55:49.747Z,83.83
2019-03-31T22:58:21.933Z,83.69
2019-03-31T23:00:54.220Z,84.17
2019-03-31T23:03:26.141Z,84.59
2019-03-31T23:05:57.803Z,84.78
2019-03-31T23:08:29.395Z,84.43
2019-03-31T23:11:01.272Z,84.17
2019-03-31T23:13:32.905Z,83.92
2019-03-31T23:16:06.865Z,83.37
2019-03-31T23:18:38.605Z,82.39
2019-03-31T23:21:10.927Z,81.71
2019-03-31T23:23:43.073Z,80.97
2019-03-31T23:26:15.198Z,78.89
2019-03-31T23:28:48.443Z,78.36
2019-03-31T23:31:20.715Z,77.80
2019-03-31T23:33:53.109Z,77.65
2019-03-31T23:36:26.365Z,77.96
2019-03-31T23:38:58.783Z,77.74
2019-03-31T23:41:30.583Z,78.66
2019-03-31T23:44:02.173Z,79.25
2019-03-31T23:46:33.825Z,79.89
2019-03-31T23:49:05.531Z,79.92
2019-03-31T23:51:37.174Z,80.29
2019-03-31T23:54:08.774Z,80.00
2019-03-31T23:56:41.981Z,79.94
2019-03-31T23:59:14.188Z,79.99
